Moccasin, California
Current Conditions -  °F | °C
As of 3:35 PM on Wednesday 22 Oct 2014 (Local Time) from KO22 Reporting Station
Clear Clear  
Wind Chill: 72°   Ceiling: Unl
Heat Index: 72°   Visibility: 10mi
Dew Point: 32°   Wind: 6mph
Humidity: 23%   Direction: 250°WSW
Pressure: 30.04"   Gusts: NA
Location:  37.81°N, 120.3°W
Report Text: KO22 222235Z AUTO 25005KT 10SM CLR 22/00 A3004 RMK AO1
Loading
Personal Weather Stations






























Interactive Weather Map
Tropical Storm Tracking
New forecast layout! Learn more

10-Day Weather Forecast

Advertisements
Track Severe Weather on mobile